sensor_id;sensor_type;location;lat;lon;timestamp;pressure;altitude;pressure_sealevel;temperature;humidity
75936;BME280;64614;32.062;34.834;2023-03-23T00:00:07;100798.13;;;22.58;49.81
75936;BME280;64614;32.062;34.834;2023-03-23T00:02:34;100788.78;;;22.59;49.89
75936;BME280;64614;32.062;34.834;2023-03-23T00:05:04;100786.06;;;22.59;49.53
75936;BME280;64614;32.062;34.834;2023-03-23T00:07:37;100780.56;;;22.59;49.58
75936;BME280;64614;32.062;34.834;2023-03-23T00:10:03;100789.91;;;22.58;49.89
75936;BME280;64614;32.062;34.834;2023-03-23T00:12:31;100784.44;;;22.58;50.05
75936;BME280;64614;32.062;34.834;2023-03-23T00:17:26;100782.81;;;22.57;49.67
75936;BME280;64614;32.062;34.834;2023-03-23T00:19:52;100780.88;;;22.57;49.92
75936;BME280;64614;32.062;34.834;2023-03-23T00:22:18;100794.56;;;22.57;50.04
75936;BME280;64614;32.062;34.834;2023-03-23T00:24:47;100782.81;;;22.57;50.19
75936;BME280;64614;32.062;34.834;2023-03-23T00:27:16;100788.28;;;22.57;49.66
75936;BME280;64614;32.062;34.834;2023-03-23T00:29:42;100779.56;;;22.54;49.97
75936;BME280;64614;32.062;34.834;2023-03-23T00:32:10;100778.13;;;22.57;49.86
75936;BME280;64614;32.062;34.834;2023-03-23T00:34:41;100771.84;;;22.57;50.20
75936;BME280;64614;32.062;34.834;2023-03-23T00:37:09;100780.88;;;22.57;50.00
75936;BME280;64614;32.062;34.834;2023-03-23T00:39:35;100774.91;;;22.55;50.04
75936;BME280;64614;32.062;34.834;2023-03-23T00:42:04;100780.88;;;22.57;49.98
75936;BME280;64614;32.062;34.834;2023-03-23T00:44:32;100780.06;;;22.57;49.94
75936;BME280;64614;32.062;34.834;2023-03-23T00:47:00;100774.59;;;22.57;49.93
75936;BME280;64614;32.062;34.834;2023-03-23T00:49:27;100771.84;;;22.57;50.26
75936;BME280;64614;32.062;34.834;2023-03-23T00:51:55;100771.84;;;22.57;49.84
75936;BME280;64614;32.062;34.834;2023-03-23T00:54:21;100779.28;;;22.56;50.09
75936;BME280;64614;32.062;34.834;2023-03-23T00:56:47;100778.13;;;22.57;50.13
75936;BME280;64614;32.062;34.834;2023-03-23T00:59:13;100770.75;;;22.58;50.31
75936;BME280;64614;32.062;34.834;2023-03-23T01:01:39;100763.66;;;22.57;50.11
75936;BME280;64614;32.062;34.834;2023-03-23T01:04:05;100772.97;;;22.56;49.96
75936;BME280;64614;32.062;34.834;2023-03-23T01:06:36;100773.47;;;22.58;49.77
75936;BME280;64614;32.062;34.834;2023-03-23T01:09:10;100771.84;;;22.57;49.95
75936;BME280;64614;32.062;34.834;2023-03-23T01:11:36;100785.53;;;22.57;49.90
75936;BME280;64614;32.062;34.834;2023-03-23T01:14:03;100771.84;;;22.57;50.08
75936;BME280;64614;32.062;34.834;2023-03-23T01:16:29;100775.41;;;22.57;49.91
75936;BME280;64614;32.062;34.834;2023-03-23T01:18:55;100770.25;;;22.56;50.42
75936;BME280;64614;32.062;34.834;2023-03-23T01:21:21;100770.25;;;22.56;50.33
75936;BME280;64614;32.062;34.834;2023-03-23T01:23:48;100781.19;;;22.56;50.26
75936;BME280;64614;32.062;34.834;2023-03-23T01:26:23;100785.88;;;22.55;49.96
75936;BME280;64614;32.062;34.834;2023-03-23T01:28:50;100782.31;;;22.54;49.97
75936;BME280;64614;32.062;34.834;2023-03-23T01:31:21;100780.38;;;22.55;50.43
75936;BME280;64614;32.062;34.834;2023-03-23T01:33:47;100774.91;;;22.55;50.48
75936;BME280;64614;32.062;34.834;2023-03-23T01:36:20;100771.06;;;22.56;50.42
75936;BME280;64614;32.062;34.834;2023-03-23T01:38:47;100771.84;;;22.57;49.95
75936;BME280;64614;32.062;34.834;2023-03-23T01:41:15;100774.91;;;22.55;50.44
75936;BME280;64614;32.062;34.834;2023-03-23T01:43:55;100779.56;;;22.54;50.56
75936;BME280;64614;32.062;34.834;2023-03-23T01:46:21;100782.31;;;22.54;50.11
75936;BME280;64614;32.062;34.834;2023-03-23T01:48:48;100785.03;;;22.54;50.25
75936;BME280;64614;32.062;34.834;2023-03-23T01:51:17;100776.81;;;22.54;50.59
75936;BME280;64614;32.062;34.834;2023-03-23T01:53:57;100781.50;;;22.54;50.25
75936;BME280;64614;32.062;34.834;2023-03-23T01:56:28;100772.47;;;22.53;50.33
75936;BME280;64614;32.062;34.834;2023-03-23T01:58:55;100783.41;;;22.53;50.59
75936;BME280;64614;32.062;34.834;2023-03-23T02:01:22;100770.84;;;22.52;50.39
75936;BME280;64614;32.062;34.834;2023-03-23T02:03:53;100758.31;;;22.51;50.70
75936;BME280;64614;32.062;34.834;2023-03-23T02:06:20;100771.66;;;22.53;50.19
75936;BME280;64614;32.062;34.834;2023-03-23T02:08:48;100767.31;;;22.52;50.22
75936;BME280;64614;32.062;34.834;2023-03-23T02:11:17;100758.31;;;22.51;50.39
75936;BME280;64614;32.062;34.834;2023-03-23T02:13:44;100763.78;;;22.51;50.78
75936;BME280;64614;32.062;34.834;2023-03-23T02:16:47;100759.09;;;22.52;50.24
75936;BME280;64614;32.062;34.834;2023-03-23T02:36:42;100749.28;;;22.51;50.33
75936;BME280;64614;32.062;34.834;2023-03-23T02:39:37;100740.75;;;22.52;50.68
75936;BME280;64614;32.062;34.834;2023-03-23T02:42:07;100724.31;;;22.52;50.53
75936;BME280;64614;32.062;34.834;2023-03-23T02:44:36;100710.63;;;22.52;50.43
75936;BME280;64614;32.062;34.834;2023-03-23T02:47:07;100716.09;;;22.52;50.27
75936;BME280;64614;32.062;34.834;2023-03-23T02:49:35;100714.53;;;22.51;50.44
75936;BME280;64614;32.062;34.834;2023-03-23T02:52:10;100716.94;;;22.53;50.37
75936;BME280;64614;32.062;34.834;2023-03-23T02:54:39;100716.09;;;22.52;50.37
75936;BME280;64614;32.062;34.834;2023-03-23T02:57:06;100709.03;;;22.51;50.31
75936;BME280;64614;32.062;34.834;2023-03-23T02:59:32;100704.69;;;22.50;50.77
75936;BME280;64614;32.062;34.834;2023-03-23T03:02:08;100703.56;;;22.51;50.86
75936;BME280;64614;32.062;34.834;2023-03-23T03:04:37;100709.03;;;22.51;50.47
75936;BME280;64614;32.062;34.834;2023-03-23T03:09:54;100724.13;;;22.49;50.54
75936;BME280;64614;32.062;34.834;2023-03-23T03:12:36;100739.16;;;22.51;50.86
75936;BME280;64614;32.062;34.834;2023-03-23T03:15:09;100744.13;;;22.49;50.41
75936;BME280;64614;32.062;34.834;2023-03-23T03:17:40;100743.28;;;22.49;50.41
75936;BME280;64614;32.062;34.834;2023-03-23T03:20:10;100735.91;;;22.49;50.46
75936;BME280;64614;32.062;34.834;2023-03-23T03:22:40;100724.97;;;22.49;50.95
75936;BME280;64614;32.062;34.834;2023-03-23T03:25:10;100726.88;;;22.49;50.58
75936;BME280;64614;32.062;34.834;2023-03-23T03:27:43;100712.38;;;22.48;50.62
75936;BME280;64614;32.062;34.834;2023-03-23T03:30:14;100701.44;;;22.48;51.00
75936;BME280;64614;32.062;34.834;2023-03-23T03:32:48;100698.72;;;22.48;50.49
75936;BME280;64614;32.062;34.834;2023-03-23T03:35:17;100697.09;;;22.47;50.73
75936;BME280;64614;32.062;34.834;2023-03-23T03:37:43;100698.72;;;22.48;50.56
75936;BME280;64614;32.062;34.834;2023-03-23T03:40:13;100693.22;;;22.48;50.61
75936;BME280;64614;32.062;34.834;2023-03-23T03:42:41;100697.09;;;22.47;50.72
75936;BME280;64614;32.062;34.834;2023-03-23T03:45:09;100704.50;;;22.47;50.54
75936;BME280;64614;32.062;34.834;2023-03-23T03:47:36;100711.09;;;22.46;50.68
75936;BME280;64614;32.062;34.834;2023-03-23T03:50:02;100713.81;;;22.46;50.69
75936;BME280;64614;32.062;34.834;2023-03-23T03:52:27;100728.31;;;22.46;51.07
75936;BME280;64614;32.062;34.834;2023-03-23T03:54:54;100732.97;;;22.46;50.58
75936;BME280;64614;32.062;34.834;2023-03-23T03:57:21;100730.53;;;22.44;50.98
75936;BME280;64614;32.062;34.834;2023-03-23T03:59:46;100728.94;;;22.43;50.62
75936;BME280;64614;32.062;34.834;2023-03-23T04:02:13;100739.06;;;22.43;50.56
75936;BME280;64614;32.062;34.834;2023-03-23T04:04:42;100749.22;;;22.42;50.62
75936;BME280;64614;32.062;34.834;2023-03-23T04:07:09;100750.00;;;22.43;50.96
75936;BME280;64614;32.062;34.834;2023-03-23T04:09:40;100750.00;;;22.43;51.08
75936;BME280;64614;32.062;34.834;2023-03-23T04:12:06;100756.59;;;22.42;51.29
75936;BME280;64614;32.062;34.834;2023-03-23T04:14:32;100767.25;;;22.43;50.93
75936;BME280;64614;32.062;34.834;2023-03-23T04:16:58;100771.56;;;22.44;50.81
75936;BME280;64614;32.062;34.834;2023-03-23T04:19:24;100775.47;;;22.43;51.22
75936;BME280;64614;32.062;34.834;2023-03-23T04:21:51;100789.13;;;22.43;50.83
75936;BME280;64614;32.062;34.834;2023-03-23T04:24:17;100796.19;;;22.44;51.09
75936;BME280;64614;32.062;34.834;2023-03-23T04:26:46;100806.34;;;22.44;50.86
75936;BME280;64614;32.062;34.834;2023-03-23T04:29:12;100805.56;;;22.43;51.22
75936;BME280;64614;32.062;34.834;2023-03-23T04:31:38;100812.63;;;22.44;51.03
75936;BME280;64614;32.062;34.834;2023-03-23T04:34:06;100815.34;;;22.44;51.21
75936;BME280;64614;32.062;34.834;2023-03-23T04:36:31;100809.88;;;22.44;50.95
75936;BME280;64614;32.062;34.834;2023-03-23T04:38:59;100818.09;;;22.44;51.01
75936;BME280;64614;32.062;34.834;2023-03-23T04:41:25;100805.56;;;22.43;50.82
75936;BME280;64614;32.062;34.834;2023-03-23T04:43:52;100805.84;;;22.42;50.75
75936;BME280;64614;32.062;34.834;2023-03-23T04:46:19;100804.22;;;22.41;50.86
75936;BME280;64614;32.062;34.834;2023-03-23T04:48:46;100807.25;;;22.39;50.88
75936;BME280;64614;32.062;34.834;2023-03-23T04:51:12;100805.63;;;22.38;50.70
75936;BME280;64614;32.062;34.834;2023-03-23T04:53:38;100799.34;;;22.37;51.08
75936;BME280;64614;32.062;34.834;2023-03-23T04:56:04;100804.63;;;22.34;50.90
75936;BME280;64614;32.062;34.834;2023-03-23T04:58:30;100802.50;;;22.31;51.16
75936;BME280;64614;32.062;34.834;2023-03-23T05:00:59;100800.06;;;22.29;50.99
75936;BME280;64614;32.062;34.834;2023-03-23T05:03:25;100795.19;;;22.26;50.73
75936;BME280;64614;32.062;34.834;2023-03-23T05:05:52;100798.53;;;22.23;50.54
75936;BME280;64614;32.062;34.834;2023-03-23T05:08:22;100804.31;;;22.21;50.81
75936;BME280;64614;32.062;34.834;2023-03-23T05:10:54;100796.44;;;22.20;50.76
75936;BME280;64614;32.062;34.834;2023-03-23T05:13:20;100797.84;;;22.17;50.80
75936;BME280;64614;32.062;34.834;2023-03-23T05:15:46;100794.63;;;22.15;50.63
75936;BME280;64614;32.062;34.834;2023-03-23T05:18:12;100797.63;;;22.14;50.82
75936;BME280;64614;32.062;34.834;2023-03-23T05:20:38;100802.91;;;22.10;50.28
75936;BME280;64614;32.062;34.834;2023-03-23T05:23:04;100795.81;;;22.09;50.56
75936;BME280;64614;32.062;34.834;2023-03-23T05:25:30;100807.06;;;22.07;50.49
75936;BME280;64614;32.062;34.834;2023-03-23T05:27:55;100798.66;;;22.04;50.05
75936;BME280;64614;32.062;34.834;2023-03-23T05:30:21;100798.16;;;22.02;50.37
75936;BME280;64614;32.062;34.834;2023-03-23T05:32:48;100803.09;;;22.00;50.07
75936;BME280;64614;32.062;34.834;2023-03-23T05:35:18;100798.78;;;21.99;50.53
75936;BME280;64614;32.062;34.834;2023-03-23T05:37:44;100799.06;;;21.97;50.26
75936;BME280;64614;32.062;34.834;2023-03-23T05:40:10;100790.34;;;21.95;49.98
75936;BME280;64614;32.062;34.834;2023-03-23T05:42:37;100797.75;;;21.95;50.24
75936;BME280;64614;32.062;34.834;2023-03-23T05:45:05;100788.75;;;21.94;49.94
75936;BME280;64614;32.062;34.834;2023-03-23T05:47:31;100788.56;;;21.90;50.36
75936;BME280;64614;32.062;34.834;2023-03-23T05:49:57;100781.47;;;21.89;49.98
75936;BME280;64614;32.062;34.834;2023-03-23T05:52:24;100792.41;;;21.89;49.87
75936;BME280;64614;32.062;34.834;2023-03-23T05:54:51;100788.03;;;21.88;50.32
75936;BME280;64614;32.062;34.834;2023-03-23T05:57:17;100785.31;;;21.88;50.21
75936;BME280;64614;32.062;34.834;2023-03-23T05:59:44;100777.09;;;21.88;50.01
75936;BME280;64614;32.062;34.834;2023-03-23T06:02:11;100780.63;;;21.89;49.84
75936;BME280;64614;32.062;34.834;2023-03-23T06:04:39;100783.69;;;21.87;49.72
75936;BME280;64614;32.062;34.834;2023-03-23T06:07:07;100788.63;;;21.85;49.66
75936;BME280;64614;32.062;34.834;2023-03-23T06:09:33;100791.38;;;21.85;49.75
75936;BME280;64614;32.062;34.834;2023-03-23T06:11:58;100787.00;;;21.84;50.04
75936;BME280;64614;32.062;34.834;2023-03-23T06:14:24;100795.22;;;21.84;49.80
75936;BME280;64614;32.062;34.834;2023-03-23T06:16:50;100796.31;;;21.83;49.64
75936;BME280;64614;32.062;34.834;2023-03-23T06:19:15;100787.31;;;21.83;49.55
75936;BME280;64614;32.062;34.834;2023-03-23T06:21:42;100785.69;;;21.82;49.56
75936;BME280;64614;32.062;34.834;2023-03-23T06:24:08;100786.50;;;21.82;49.97
75936;BME280;64614;32.062;34.834;2023-03-23T06:26:36;100807.25;;;21.83;49.89
75936;BME280;64614;32.062;34.834;2023-03-23T06:29:04;100793.59;;;21.83;49.76
75936;BME280;64614;32.062;34.834;2023-03-23T06:31:47;100795.22;;;21.84;49.74
75936;BME280;64614;32.062;34.834;2023-03-23T06:34:13;100799.56;;;21.85;49.77
75936;BME280;64614;32.062;34.834;2023-03-23T06:36:40;100807.19;;;21.88;49.38
75936;BME280;64614;32.062;34.834;2023-03-23T06:39:05;100804.97;;;21.90;49.57
75936;BME280;64614;32.062;34.834;2023-03-23T06:41:32;100817.50;;;21.91;49.62
75936;BME280;64614;32.062;34.834;2023-03-23T06:43:59;100820.22;;;21.91;49.18
75936;BME280;64614;32.062;34.834;2023-03-23T06:46:25;100820.22;;;21.91;49.67
75936;BME280;64614;32.062;34.834;2023-03-23T06:48:50;100819.13;;;21.92;49.33
75936;BME280;64614;32.062;34.834;2023-03-23T06:51:17;100829.25;;;21.92;49.69
75936;BME280;64614;32.062;34.834;2023-03-23T06:53:44;100818.31;;;21.92;49.65
75936;BME280;64614;32.062;34.834;2023-03-23T06:56:10;100831.16;;;21.91;49.17
75936;BME280;64614;32.062;34.834;2023-03-23T06:58:37;100839.09;;;21.93;49.72
75936;BME280;64614;32.062;34.834;2023-03-23T07:01:03;100832.50;;;21.94;49.29
75936;BME280;64614;32.062;34.834;2023-03-23T07:03:29;100825.09;;;21.95;49.39
75936;BME280;64614;32.062;34.834;2023-03-23T07:05:56;100831.38;;;21.95;49.31
75936;BME280;64614;32.062;34.834;2023-03-23T07:08:22;100833.00;;;21.96;49.57
75936;BME280;64614;32.062;34.834;2023-03-23T07:10:51;100831.09;;;21.97;49.54
75936;BME280;64614;32.062;34.834;2023-03-23T07:13:18;100822.06;;;21.96;49.41
75936;BME280;64614;32.062;34.834;2023-03-23T07:15:44;100815.47;;;21.97;49.54
75936;BME280;64614;32.062;34.834;2023-03-23T07:18:10;100813.84;;;21.96;49.35
75936;BME280;64614;32.062;34.834;2023-03-23T07:20:36;100825.59;;;21.97;49.76
75936;BME280;64614;32.062;34.834;2023-03-23T07:23:03;100809.22;;;21.97;49.09
75936;BME280;64614;32.062;34.834;2023-03-23T07:25:31;100818.53;;;21.96;49.25
75936;BME280;64614;32.062;34.834;2023-03-23T07:27:59;100803.72;;;21.97;49.37
75936;BME280;64614;32.062;34.834;2023-03-23T07:30:25;100790.78;;;21.88;49.58
75936;BME280;64614;32.062;34.834;2023-03-23T07:32:52;100778.22;;;21.87;49.65
75936;BME280;64614;32.062;34.834;2023-03-23T07:35:18;100766.44;;;21.87;49.96
75936;BME280;64614;32.062;34.834;2023-03-23T07:37:44;100775.47;;;21.87;49.49
75936;BME280;64614;32.062;34.834;2023-03-23T07:40:11;100782.06;;;21.86;49.73
75936;BME280;64614;32.062;34.834;2023-03-23T07:42:44;100813.97;;;21.91;49.48
75936;BME280;64614;32.062;34.834;2023-03-23T07:45:12;100816.69;;;21.91;49.28
75936;BME280;64614;32.062;34.834;2023-03-23T07:47:41;100823.47;;;21.94;49.75
75936;BME280;64614;32.062;34.834;2023-03-23T07:50:08;100815.28;;;21.94;49.50
75936;BME280;64614;32.062;34.834;2023-03-23T07:52:35;100810.63;;;21.94;49.69
75936;BME280;64614;32.062;34.834;2023-03-23T07:55:02;100809.81;;;21.94;49.42
75936;BME280;64614;32.062;34.834;2023-03-23T07:57:29;100816.91;;;21.95;49.69
75936;BME280;64614;32.062;34.834;2023-03-23T07:59:56;100806.75;;;21.95;49.28
75936;BME280;64614;32.062;34.834;2023-03-23T08:02:22;100813.03;;;21.96;49.63
75936;BME280;64614;32.062;34.834;2023-03-23T08:04:48;100799.38;;;21.96;49.24
75936;BME280;64614;32.062;34.834;2023-03-23T08:07:15;100802.91;;;21.96;49.41
75936;BME280;64614;32.062;34.834;2023-03-23T08:09:42;100798.28;;;21.97;49.48
75936;BME280;64614;32.062;34.834;2023-03-23T08:12:08;100787.34;;;21.97;49.21
75936;BME280;64614;32.062;34.834;2023-03-23T08:14:34;100771.72;;;21.97;49.29
75936;BME280;64614;32.062;34.834;2023-03-23T08:17:00;100772.53;;;21.98;49.13
75936;BME280;64614;32.062;34.834;2023-03-23T08:19:26;100782.66;;;21.97;49.45
75936;BME280;64614;32.062;34.834;2023-03-23T08:21:52;100790.56;;;21.99;49.30
75936;BME280;64614;32.062;34.834;2023-03-23T08:24:18;100785.91;;;21.99;49.12
75936;BME280;64614;32.062;34.834;2023-03-23T08:26:44;100799.25;;;22.01;49.10
75936;BME280;64614;32.062;34.834;2023-03-23T08:29:10;100800.88;;;22.02;49.42
75936;BME280;64614;32.062;34.834;2023-03-23T08:31:36;100811.81;;;22.02;49.41
75936;BME280;64614;32.062;34.834;2023-03-23T08:34:03;100817.81;;;22.04;49.08
75936;BME280;64614;32.062;34.834;2023-03-23T08:36:31;100825.22;;;22.03;49.38
75936;BME280;64614;32.062;34.834;2023-03-23T08:38:57;100825.22;;;22.03;49.28
75936;BME280;64614;32.062;34.834;2023-03-23T08:41:23;100816.50;;;22.01;49.06
75936;BME280;64614;32.062;34.834;2023-03-23T08:43:49;100802.00;;;22.01;49.32
75936;BME280;64614;32.062;34.834;2023-03-23T08:46:15;100797.88;;;22.03;49.52
75936;BME280;64614;32.062;34.834;2023-03-23T08:48:43;100792.59;;;22.07;49.44
75936;BME280;64614;32.062;34.834;2023-03-23T08:51:09;100795.34;;;22.07;48.96
75936;BME280;64614;32.062;34.834;2023-03-23T08:53:36;100787.13;;;22.07;49.49
75936;BME280;64614;32.062;34.834;2023-03-23T08:56:03;100788.75;;;22.08;49.34
75936;BME280;64614;32.062;34.834;2023-03-23T08:58:29;100781.66;;;22.07;49.22
75936;BME280;64614;32.062;34.834;2023-03-23T09:00:55;100776.97;;;22.07;49.12
75936;BME280;64614;32.062;34.834;2023-03-23T09:03:20;100779.41;;;22.09;49.51
75936;BME280;64614;32.062;34.834;2023-03-23T09:05:46;100786.50;;;22.10;49.15
75936;BME280;64614;32.062;34.834;2023-03-23T09:08:12;100798.25;;;22.11;48.96
75936;BME280;64614;32.062;34.834;2023-03-23T09:10:39;100792.78;;;22.11;48.84
75936;BME280;64614;32.062;34.834;2023-03-23T09:13:05;100784.06;;;22.09;48.88
75936;BME280;64614;32.062;34.834;2023-03-23T09:15:32;100798.25;;;22.11;49.19
75936;BME280;64614;32.062;34.834;2023-03-23T09:17:58;100802.31;;;22.13;49.35
75936;BME280;64614;32.062;34.834;2023-03-23T09:20:27;100813.25;;;22.13;48.79
75936;BME280;64614;32.062;34.834;2023-03-23T09:22:55;100814.03;;;22.14;49.20
75936;BME280;64614;32.062;34.834;2023-03-23T09:25:26;100795.22;;;22.12;49.01
75936;BME280;64614;32.062;34.834;2023-03-23T09:30:30;100763.81;;;22.10;48.96
75936;BME280;64614;32.062;34.834;2023-03-23T09:33:03;100759.34;;;22.14;49.16
75936;BME280;64614;32.062;34.834;2023-03-23T09:35:33;100764.81;;;22.14;48.63
75936;BME280;64614;32.062;34.834;2023-03-23T09:38:01;100754.69;;;22.14;49.07
75936;BME280;64614;32.062;34.834;2023-03-23T09:40:43;100766.44;;;22.15;49.06
75936;BME280;64614;32.062;34.834;2023-03-23T09:54:16;100783.03;;;22.18;49.00
75936;BME280;64614;32.062;34.834;2023-03-23T09:56:45;100765.00;;;22.17;48.92
75936;BME280;64614;32.062;34.834;2023-03-23T09:59:36;100769.88;;;22.20;48.77
75936;BME280;64614;32.062;34.834;2023-03-23T10:02:18;100757.03;;;22.21;48.65
75936;BME280;64614;32.062;34.834;2023-03-23T10:04:47;100758.34;;;22.23;48.66
75936;BME280;64614;32.062;34.834;2023-03-23T10:07:15;100771.19;;;22.23;48.75
75936;BME280;64614;32.062;34.834;2023-03-23T10:09:43;100776.19;;;22.21;48.82
75936;BME280;64614;32.062;34.834;2023-03-23T10:15:31;100773.63;;;22.25;49.02
75936;BME280;64614;32.062;34.834;2023-03-23T10:28:20;100772.81;;;22.24;48.78
75936;BME280;64614;32.062;34.834;2023-03-23T10:30:55;100775.88;;;22.22;48.81
75936;BME280;64614;32.062;34.834;2023-03-23T10:34:44;100784.56;;;22.25;48.29
75936;BME280;64614;32.062;34.834;2023-03-23T10:36:59;100775.53;;;22.24;48.32
75936;BME280;64614;32.062;34.834;2023-03-23T10:39:31;100782.94;;;22.23;48.19
75936;BME280;64614;32.062;34.834;2023-03-23T10:42:00;100775.53;;;22.24;48.19
75936;BME280;64614;32.062;34.834;2023-03-23T10:44:32;100775.53;;;22.24;48.40
75936;BME280;64614;32.062;34.834;2023-03-23T10:47:08;100769.28;;;22.23;48.49
75936;BME280;64614;32.062;34.834;2023-03-23T10:49:36;100772.53;;;22.26;48.47
75936;BME280;64614;32.062;34.834;2023-03-23T10:52:10;100767.06;;;22.26;48.46
75936;BME280;64614;32.062;34.834;2023-03-23T10:54:48;100764.31;;;22.26;48.45
75936;BME280;64614;32.062;34.834;2023-03-23T10:57:29;100752.22;;;22.27;48.48
75936;BME280;64614;32.062;34.834;2023-03-23T11:02:44;100756.59;;;22.28;48.44
75936;BME280;64614;32.062;34.834;2023-03-23T11:05:20;100750.00;;;22.29;48.59
75936;BME280;64614;32.062;34.834;2023-03-23T11:07:53;100752.75;;;22.29;48.51
75936;BME280;64614;32.062;34.834;2023-03-23T11:10:37;100757.09;;;22.30;48.38
75936;BME280;64614;32.062;34.834;2023-03-23T11:13:03;100758.72;;;22.31;48.30
75936;BME280;64614;32.062;34.834;2023-03-23T11:15:33;100747.78;;;22.31;48.32
75936;BME280;64614;32.062;34.834;2023-03-23T11:18:11;100739.25;;;22.32;48.45
75936;BME280;64614;32.062;34.834;2023-03-23T11:20:44;100735.41;;;22.33;48.38
75936;BME280;64614;32.062;34.834;2023-03-23T11:23:22;100736.22;;;22.34;48.33
75936;BME280;64614;32.062;34.834;2023-03-23T11:28:45;100735.91;;;22.35;48.46
75936;BME280;64614;32.062;34.834;2023-03-23T11:31:13;100731.75;;;22.38;48.29
75936;BME280;64614;32.062;34.834;2023-03-23T11:36:20;100718.59;;;22.40;48.28
75936;BME280;64614;32.062;34.834;2023-03-23T11:38:53;100710.91;;;22.42;48.13
75936;BME280;64614;32.062;34.834;2023-03-23T11:41:22;100695.59;;;22.41;48.37
75936;BME280;64614;32.062;34.834;2023-03-23T11:43:51;100694.47;;;22.42;48.03
75936;BME280;64614;32.062;34.834;2023-03-23T11:46:34;100687.56;;;22.45;48.15
75936;BME280;64614;32.062;34.834;2023-03-23T11:49:05;100686.75;;;22.44;47.99
75936;BME280;64614;32.062;34.834;2023-03-23T11:51:41;100688.88;;;22.47;48.17
75936;BME280;64614;32.062;34.834;2023-03-23T11:54:33;100694.34;;;22.47;48.55
75936;BME280;64614;32.062;34.834;2023-03-23T11:57:01;100685.03;;;22.48;48.55
75936;BME280;64614;32.062;34.834;2023-03-23T11:59:34;100677.31;;;22.50;48.19
75936;BME280;64614;32.062;34.834;2023-03-23T12:05:11;100666.56;;;22.54;48.16
75936;BME280;64614;32.062;34.834;2023-03-23T12:07:50;100664.63;;;22.54;48.39
75936;BME280;64614;32.062;34.834;2023-03-23T12:10:32;100662.38;;;22.57;48.32
75936;BME280;64614;32.062;34.834;2023-03-23T12:15:45;100664.50;;;22.60;48.19
75936;BME280;64614;32.062;34.834;2023-03-23T12:18:40;100656.28;;;22.60;48.24
75936;BME280;64614;32.062;34.834;2023-03-23T12:26:52;100633.75;;;22.63;48.60
75936;BME280;64614;32.062;34.834;2023-03-23T12:35:25;100588.34;;;22.62;48.10
75936;BME280;64614;32.062;34.834;2023-03-23T12:51:32;100597.19;;;22.59;48.00
75936;BME280;64614;32.062;34.834;2023-03-23T12:54:34;100600.72;;;22.59;48.23
75936;BME280;64614;32.062;34.834;2023-03-23T13:00:01;100608.16;;;22.59;48.26
75936;BME280;64614;32.062;34.834;2023-03-23T13:07:55;100601.22;;;22.61;47.71
75936;BME280;64614;32.062;34.834;2023-03-23T13:10:28;100597.69;;;22.61;47.85
75936;BME280;64614;32.062;34.834;2023-03-23T13:12:55;100600.91;;;22.63;47.94
75936;BME280;64614;32.062;34.834;2023-03-23T13:15:31;100595.44;;;22.63;47.85
75936;BME280;64614;32.062;34.834;2023-03-23T13:20:54;100600.91;;;22.63;48.05
75936;BME280;64614;32.062;34.834;2023-03-23T13:26:13;100603.34;;;22.64;47.93
75936;BME280;64614;32.062;34.834;2023-03-23T13:29:00;100594.31;;;22.64;48.15
75936;BME280;64614;32.062;34.834;2023-03-23T13:31:31;100599.78;;;22.64;48.05
75936;BME280;64614;32.062;34.834;2023-03-23T13:34:10;100595.44;;;22.63;47.77
75936;BME280;64614;32.062;34.834;2023-03-23T13:36:58;100599.78;;;22.64;48.08
75936;BME280;64614;32.062;34.834;2023-03-23T13:39:27;100599.00;;;22.63;47.94
75936;BME280;64614;32.062;34.834;2023-03-23T13:44:55;100609.34;;;22.75;47.43
75936;BME280;64614;32.062;34.834;2023-03-23T13:49:59;100603.88;;;22.75;47.24
75936;BME280;64614;32.062;34.834;2023-03-23T13:52:38;100599.19;;;22.76;47.21
75936;BME280;64614;32.062;34.834;2023-03-23T14:13:30;100556.84;;;22.73;47.20
75936;BME280;64614;32.062;34.834;2023-03-23T14:16:02;100558.47;;;22.74;47.22
75936;BME280;64614;32.062;34.834;2023-03-23T14:18:40;100557.66;;;22.74;47.06
75936;BME280;64614;32.062;34.834;2023-03-23T14:21:22;100556.06;;;22.73;47.38
75936;BME280;64614;32.062;34.834;2023-03-23T14:23:48;100559.91;;;22.72;47.22
75936;BME280;64614;32.062;34.834;2023-03-23T14:26:19;100559.59;;;22.73;47.14
75936;BME280;64614;32.062;34.834;2023-03-23T14:28:50;100555.22;;;22.72;46.89
75936;BME280;64614;32.062;34.834;2023-03-23T14:31:26;100565.06;;;22.73;47.15
75936;BME280;64614;32.062;34.834;2023-03-23T14:33:54;100556.06;;;22.73;47.30
75936;BME280;64614;32.062;34.834;2023-03-23T14:36:31;100559.09;;;22.71;47.14
75936;BME280;64614;32.062;34.834;2023-03-23T14:41:22;100547.00;;;22.72;46.92
75936;BME280;64614;32.062;34.834;2023-03-23T14:43:48;100544.28;;;22.72;46.74
75936;BME280;64614;32.062;34.834;2023-03-23T14:46:16;100546.22;;;22.72;46.78
75936;BME280;64614;32.062;34.834;2023-03-23T14:48:43;100553.59;;;22.71;46.88
75936;BME280;64614;32.062;34.834;2023-03-23T14:51:18;100542.66;;;22.71;46.61
75936;BME280;64614;32.062;34.834;2023-03-23T14:53:44;100554.72;;;22.70;47.08
75936;BME280;64614;32.062;34.834;2023-03-23T14:56:15;100552.81;;;22.71;46.74
75936;BME280;64614;32.062;34.834;2023-03-23T14:58:46;100552.81;;;22.71;47.02
75936;BME280;64614;32.062;34.834;2023-03-23T15:01:19;100548.47;;;22.69;46.76